Time;durP1;ratioP1;P1;durP2;ratioP2;P2;SDS_P1;SDS_P2;PMS_P1;PMS_P2;Temp;Humidity;BMP_temperature;BMP_pressure;BME280_temperature;BME280_humidity;BME280_pressure;Samples;Min_cycle;Max_cycle;Signal;HPM_P1;HPM_P2
2021/09/26 00:00:14;;;;;;;8.63;5.70;;;18.70;99.90;;;;;;4897871;29;20139;-78
2021/09/26 00:02:42;;;;;;;9.55;5.57;;;18.70;99.90;;;;;;4896817;29;20080;-79
2021/09/26 00:05:11;;;;;;;8.02;5.07;;;18.70;99.90;;;;;;4897676;29;20132;-77
2021/09/26 00:07:39;;;;;;;9.55;5.57;;;18.70;99.90;;;;;;4897378;29;20191;-78
2021/09/26 00:10:12;;;;;;;8.02;5.03;;;18.60;99.90;;;;;;4898622;29;20151;-78
2021/09/26 00:12:39;;;;;;;7.63;5.43;;;18.60;99.90;;;;;;4901523;29;20051;-79
2021/09/26 00:15:11;;;;;;;7.75;5.28;;;18.60;99.90;;;;;;4901449;29;20049;-78
2021/09/26 00:17:38;;;;;;;8.15;5.15;;;18.60;99.90;;;;;;4894919;29;20136;-78
2021/09/26 00:20:08;;;;;;;6.78;4.75;;;18.60;99.90;;;;;;4901277;29;20406;-78
2021/09/26 00:22:35;;;;;;;8.65;4.90;;;18.50;99.90;;;;;;4894679;29;20076;-76
2021/09/26 00:25:03;;;;;;;7.55;4.90;;;18.50;99.90;;;;;;4902055;29;20084;-79
2021/09/26 00:27:32;;;;;;;6.95;5.00;;;18.50;99.90;;;;;;4904758;29;20562;-76
2021/09/26 00:29:59;;;;;;;6.70;4.60;;;18.60;99.90;;;;;;4919437;29;20079;-79
2021/09/26 00:32:26;;;;;;;7.60;5.00;;;18.60;99.90;;;;;;4919890;29;20079;-76
2021/09/26 00:34:53;;;;;;;7.95;5.07;;;18.60;99.90;;;;;;4918945;29;20059;-78
2021/09/26 00:37:20;;;;;;;8.25;5.40;;;18.60;99.90;;;;;;4917921;29;20080;-79
2021/09/26 00:39:47;;;;;;;7.45;5.07;;;18.50;99.90;;;;;;4918414;29;20052;-77
2021/09/26 00:42:15;;;;;;;7.95;5.30;;;18.50;99.90;;;;;;4906842;29;20132;-78
2021/09/26 00:44:43;;;;;;;8.45;5.18;;;18.50;99.90;;;;;;4901069;29;20084;-78
2021/09/26 00:47:10;;;;;;;6.72;4.90;;;18.50;99.90;;;;;;4900837;29;20048;-78
2021/09/26 00:49:37;;;;;;;8.57;5.07;;;18.50;99.90;;;;;;4900951;29;20051;-79
2021/09/26 00:52:05;;;;;;;8.07;5.32;;;18.50;99.90;;;;;;4900660;29;20463;-78
2021/09/26 00:54:33;;;;;;;9.00;5.03;;;18.50;99.90;;;;;;4900932;29;20055;-77
2021/09/26 00:57:00;;;;;;;6.93;5.13;;;18.50;99.90;;;;;;4900924;29;20533;-78
2021/09/26 00:59:27;;;;;;;6.32;4.60;;;18.50;99.90;;;;;;4900634;29;20083;-78
2021/09/26 01:01:55;;;;;;;7.35;4.85;;;18.50;99.90;;;;;;4900950;29;20055;-77
2021/09/26 01:04:22;;;;;;;6.65;4.75;;;18.50;99.90;;;;;;4900469;29;20053;-77
2021/09/26 01:06:58;;;;;;;7.15;4.57;;;18.50;99.90;;;;;;4901265;29;20055;-77
2021/09/26 01:09:34;;;;;;;7.78;4.53;;;18.50;99.90;;;;;;4900870;29;20055;-77
2021/09/26 01:12:19;;;;;;;7.07;4.72;;;18.50;99.90;;;;;;4900659;29;20136;-78
2021/09/26 01:14:55;;;;;;;8.35;4.80;;;18.50;99.90;;;;;;4895524;29;20072;-78
2021/09/26 01:17:31;;;;;;;7.80;4.50;;;18.50;99.90;;;;;;4900236;29;20163;-78
2021/09/26 01:20:43;;;;;;;6.50;4.75;;;18.50;99.90;;;;;;4900568;29;20055;-78
2021/09/26 01:23:57;;;;;;;8.10;5.22;;;18.50;99.90;;;;;;4898273;29;20155;-78
2021/09/26 01:26:35;;;;;;;;;;;18.50;99.90;;;;;;4895432;29;20875;-79
2021/09/26 01:29:29;;;;;;;8.52;5.25;;;18.50;99.90;;;;;;4900875;29;19934;-79
2021/09/26 01:32:02;;;;;;;8.45;4.90;;;18.50;99.90;;;;;;4866454;29;20096;-78
2021/09/26 01:34:38;;;;;;;7.63;4.63;;;18.60;99.90;;;;;;4900404;29;20121;-78
2021/09/26 01:37:13;;;;;;;8.98;4.80;;;18.50;99.90;;;;;;4900010;29;20057;-79
2021/09/26 01:39:47;;;;;;;8.90;4.45;;;18.60;99.90;;;;;;4894263;29;20047;-79
2021/09/26 01:42:20;;;;;;;7.22;4.75;;;18.50;99.90;;;;;;4900389;29;20076;-79
2021/09/26 01:44:55;;;;;;;6.87;5.00;;;18.50;99.90;;;;;;4900402;29;20084;-79
2021/09/26 01:47:33;;;;;;;7.20;4.80;;;18.40;99.90;;;;;;4899897;29;20308;-79
2021/09/26 01:50:03;;;;;;;7.63;5.00;;;18.40;99.90;;;;;;4900132;29;20059;-80
2021/09/26 01:52:34;;;;;;;7.43;5.15;;;18.30;99.90;;;;;;4899532;29;20570;-78
2021/09/26 01:55:02;;;;;;;7.40;4.53;;;18.30;99.90;;;;;;4899762;29;20123;-78
2021/09/26 01:57:31;;;;;;;7.40;4.53;;;18.20;99.90;;;;;;4899807;29;20080;-79
2021/09/26 02:00:00;;;;;;;7.32;4.80;;;18.20;99.90;;;;;;4899836;29;20147;-77
2021/09/26 02:02:29;;;;;;;7.35;5.00;;;18.10;99.90;;;;;;4899191;29;20053;-78
2021/09/26 02:05:00;;;;;;;7.28;5.30;;;18.00;99.90;;;;;;4900134;29;20139;-79
2021/09/26 02:07:30;;;;;;;7.13;4.63;;;17.90;99.90;;;;;;4899604;29;20093;-76
2021/09/26 02:09:58;;;;;;;8.25;4.75;;;17.90;99.90;;;;;;4899330;29;20059;-78
2021/09/26 02:12:27;;;;;;;7.40;5.05;;;17.90;99.90;;;;;;4899553;29;20052;-78
2021/09/26 02:14:55;;;;;;;8.85;5.28;;;17.90;99.90;;;;;;4899590;29;20143;-79
2021/09/26 02:17:26;;;;;;;8.82;5.40;;;17.80;99.90;;;;;;4899328;29;21263;-78
2021/09/26 02:20:00;;;;;;;7.25;5.10;;;17.80;99.90;;;;;;4899550;29;20089;-78
2021/09/26 02:22:27;;;;;;;7.65;4.70;;;17.80;99.90;;;;;;4899380;29;20131;-79
2021/09/26 02:24:55;;;;;;;6.72;5.13;;;17.80;99.90;;;;;;4899007;29;20559;-78
2021/09/26 02:27:22;;;;;;;6.10;4.43;;;17.80;99.90;;;;;;4899083;29;20076;-78
2021/09/26 02:29:49;;;;;;;6.45;4.60;;;17.90;99.90;;;;;;4899547;29;20051;-79
2021/09/26 02:32:16;;;;;;;7.80;4.80;;;17.80;99.90;;;;;;4898590;29;20562;-80
2021/09/26 02:34:43;;;;;;;8.13;5.07;;;17.90;99.90;;;;;;4899445;29;20131;-79
2021/09/26 02:37:12;;;;;;;7.65;4.93;;;17.80;99.90;;;;;;4898650;29;20059;-77
2021/09/26 02:39:39;;;;;;;7.75;4.80;;;17.80;99.90;;;;;;4899383;29;20055;-80
2021/09/26 02:42:26;;;;;;;6.35;4.35;;;17.80;99.90;;;;;;4898869;29;20578;-79
2021/09/26 02:45:03;;;;;;;7.15;4.45;;;17.80;99.90;;;;;;4894483;29;20562;-79
2021/09/26 02:47:51;;;;;;;7.88;4.53;;;17.70;99.90;;;;;;4898951;29;20125;-80
2021/09/26 02:50:19;;;;;;;6.60;4.30;;;17.80;99.90;;;;;;4899168;29;20127;-79
2021/09/26 02:52:49;;;;;;;6.60;4.80;;;17.80;99.90;;;;;;4898977;29;20144;-80
2021/09/26 02:55:16;;;;;;;7.32;4.50;;;17.90;99.90;;;;;;4898506;29;20533;-80
2021/09/26 02:57:44;;;;;;;7.47;4.43;;;17.90;99.90;;;;;;4898385;29;20084;-79
2021/09/26 03:00:13;;;;;;;6.35;4.43;;;17.90;99.90;;;;;;4896720;29;20451;-79
2021/09/26 03:02:41;;;;;;;6.72;4.43;;;17.90;99.90;;;;;;4889642;29;20128;-78
2021/09/26 03:05:10;;;;;;;7.43;4.30;;;17.90;99.90;;;;;;4890332;29;20508;-78
2021/09/26 03:07:37;;;;;;;7.32;4.65;;;18.00;99.90;;;;;;4895964;29;20475;-79
2021/09/26 03:10:08;;;;;;;8.50;4.40;;;18.00;99.90;;;;;;4895783;29;20096;-79
2021/09/26 03:12:35;;;;;;;6.90;4.50;;;18.00;99.90;;;;;;4889289;29;20147;-79
2021/09/26 03:15:03;;;;;;;7.25;4.60;;;17.90;99.90;;;;;;4895969;29;20131;-76
2021/09/26 03:17:32;;;;;;;7.35;4.63;;;17.90;99.90;;;;;;4898310;29;20526;-79
2021/09/26 03:19:59;;;;;;;6.40;4.65;;;17.90;99.90;;;;;;4896985;29;20059;-79
2021/09/26 03:22:26;;;;;;;8.35;4.63;;;17.90;99.90;;;;;;4897969;29;20590;-77
2021/09/26 03:24:53;;;;;;;6.70;4.43;;;17.80;99.90;;;;;;4896975;29;20151;-77
2021/09/26 03:27:21;;;;;;;6.75;4.70;;;17.80;99.90;;;;;;4897314;29;20076;-79
2021/09/26 03:29:48;;;;;;;6.93;4.20;;;17.80;99.90;;;;;;4897684;29;20108;-79
2021/09/26 03:32:15;;;;;;;7.50;4.93;;;17.80;99.90;;;;;;4896651;29;20132;-79
2021/09/26 03:34:42;;;;;;;7.32;4.60;;;17.80;99.90;;;;;;4896079;29;20131;-79
2021/09/26 03:37:10;;;;;;;7.78;5.10;;;17.70;99.90;;;;;;4895502;29;20049;-79
2021/09/26 03:39:37;;;;;;;6.95;5.03;;;17.70;99.90;;;;;;4895503;29;20059;-80
2021/09/26 03:42:05;;;;;;;6.55;4.30;;;17.70;99.90;;;;;;4895695;29;20127;-78
2021/09/26 03:44:35;;;;;;;6.35;4.43;;;17.70;99.90;;;;;;4894910;29;20577;-80
2021/09/26 03:47:02;;;;;;;8.40;4.70;;;17.60;99.90;;;;;;4895675;29;20523;-80
2021/09/26 03:49:29;;;;;;;9.27;5.20;;;17.60;99.90;;;;;;4895291;29;20044;-80
2021/09/26 03:51:57;;;;;;;6.55;4.47;;;17.60;99.90;;;;;;4895400;29;20056;-80
2021/09/26 03:54:24;;;;;;;8.45;4.95;;;17.50;99.90;;;;;;4895543;29;20456;-79
2021/09/26 03:56:51;;;;;;;9.57;5.07;;;17.50;99.90;;;;;;4895308;29;20053;-78
2021/09/26 03:59:19;;;;;;;6.88;4.57;;;17.50;99.90;;;;;;4891479;29;20045;-79
2021/09/26 04:01:49;;;;;;;6.90;4.88;;;17.50;99.90;;;;;;4897198;29;20048;-79
2021/09/26 04:04:18;;;;;;;6.88;4.60;;;17.40;99.90;;;;;;4897388;29;20499;-79
2021/09/26 04:06:45;;;;;;;7.00;4.93;;;17.40;99.90;;;;;;4897407;29;20567;-79
2021/09/26 04:09:13;;;;;;;8.25;5.05;;;17.40;99.90;;;;;;4897687;29;20048;-77
2021/09/26 04:11:40;;;;;;;6.88;4.63;;;17.30;99.90;;;;;;4898298;29;20135;-79
2021/09/26 04:14:07;;;;;;;9.38;5.15;;;17.30;99.90;;;;;;4897558;29;20059;-78
2021/09/26 04:16:34;;;;;;;7.03;5.18;;;17.30;99.90;;;;;;4891162;29;20143;-80
2021/09/26 04:19:03;;;;;;;7.45;5.30;;;17.30;99.90;;;;;;4897188;29;20063;-79
2021/09/26 04:21:30;;;;;;;7.25;5.55;;;17.30;99.90;;;;;;4897225;29;20051;-78
2021/09/26 04:23:57;;;;;;;8.40;5.65;;;17.20;99.90;;;;;;4897694;29;20135;-78
2021/09/26 04:26:24;;;;;;;8.82;5.70;;;17.20;99.90;;;;;;4898158;29;20044;-81
2021/09/26 04:28:52;;;;;;;8.40;5.68;;;17.20;99.90;;;;;;4897869;29;20045;-78
2021/09/26 04:31:19;;;;;;;7.95;5.90;;;17.20;99.90;;;;;;4897733;29;20143;-78
2021/09/26 04:33:46;;;;;;;7.50;5.50;;;17.10;99.90;;;;;;4897135;29;20429;-78
2021/09/26 04:36:14;;;;;;;8.90;5.88;;;17.10;99.90;;;;;;4897604;29;20406;-78
2021/09/26 04:38:41;;;;;;;9.07;5.82;;;17.10;99.90;;;;;;4897405;29;20063;-79
2021/09/26 04:41:09;;;;;;;8.27;5.80;;;17.10;99.90;;;;;;4897251;29;20483;-78
2021/09/26 04:43:36;;;;;;;9.32;5.90;;;17.10;99.90;;;;;;4890725;29;20045;-78
2021/09/26 04:46:03;;;;;;;8.63;6.18;;;17.00;99.90;;;;;;4897490;29;20144;-78
2021/09/26 04:48:30;;;;;;;8.85;5.88;;;17.00;99.90;;;;;;4896891;29;20137;-79
2021/09/26 04:50:57;;;;;;;7.97;5.85;;;17.00;99.90;;;;;;4897179;29;20156;-79
2021/09/26 04:53:26;;;;;;;8.27;5.60;;;17.00;99.90;;;;;;4897163;29;20135;-79
2021/09/26 04:55:53;;;;;;;8.50;5.53;;;17.00;99.90;;;;;;4898493;29;20049;-79
2021/09/26 04:58:20;;;;;;;7.78;5.57;;;17.00;99.90;;;;;;4900839;29;20086;-79
2021/09/26 05:00:47;;;;;;;8.52;5.82;;;17.00;99.90;;;;;;4900882;29;20051;-79
2021/09/26 05:03:15;;;;;;;8.57;6.18;;;17.00;99.90;;;;;;4900661;29;20120;-79
2021/09/26 05:05:42;;;;;;;8.68;5.20;;;17.00;99.90;;;;;;4900988;29;20140;-79
2021/09/26 05:08:09;;;;;;;8.18;5.20;;;17.00;99.90;;;;;;4900949;29;20135;-79
2021/09/26 05:10:37;;;;;;;9.85;5.97;;;17.00;99.90;;;;;;4901199;29;20084;-79
2021/09/26 05:13:05;;;;;;;8.38;5.53;;;17.00;99.90;;;;;;4901603;29;20578;-79
2021/09/26 05:15:32;;;;;;;7.70;5.28;;;17.00;99.90;;;;;;4903656;29;20083;-78
2021/09/26 05:17:59;;;;;;;7.75;5.30;;;16.90;99.90;;;;;;4904695;29;20496;-79
2021/09/26 05:20:27;;;;;;;7.25;5.05;;;16.90;99.90;;;;;;4903491;29;20139;-79
2021/09/26 05:22:54;;;;;;;8.60;5.63;;;16.80;99.90;;;;;;4903482;29;20103;-78
2021/09/26 05:25:22;;;;;;;7.72;5.47;;;16.80;99.90;;;;;;4903154;29;20480;-78
2021/09/26 05:27:51;;;;;;;7.28;5.40;;;16.70;99.90;;;;;;4904422;29;20076;-78
2021/09/26 05:30:18;;;;;;;9.38;5.05;;;16.60;99.90;;;;;;4903100;29;20131;-79
2021/09/26 05:32:45;;;;;;;8.10;5.00;;;16.60;99.90;;;;;;4904426;29;20079;-79
2021/09/26 05:35:12;;;;;;;8.15;5.20;;;16.60;99.90;;;;;;4902388;29;20136;-80
2021/09/26 05:37:40;;;;;;;9.50;5.43;;;16.60;99.90;;;;;;4898560;29;20052;-78
2021/09/26 05:40:09;;;;;;;8.70;5.32;;;16.60;99.90;;;;;;4891692;29;20462;-77
2021/09/26 05:42:36;;;;;;;7.45;5.30;;;16.60;99.90;;;;;;4890374;29;20075;-78
2021/09/26 05:45:07;;;;;;;7.32;5.30;;;16.60;99.90;;;;;;4888459;29;20143;-78
2021/09/26 05:47:34;;;;;;;8.77;5.57;;;16.60;99.90;;;;;;4889168;29;20053;-79
2021/09/26 05:50:01;;;;;;;7.75;5.45;;;16.60;99.90;;;;;;4882555;29;20055;-79
2021/09/26 05:52:28;;;;;;;8.48;5.45;;;16.60;99.90;;;;;;4887141;29;20055;-80
2021/09/26 05:54:55;;;;;;;8.27;5.38;;;16.60;99.90;;;;;;4894364;29;20479;-77
2021/09/26 05:57:22;;;;;;;8.07;5.03;;;16.70;99.90;;;;;;4887604;29;20049;-76
2021/09/26 05:59:49;;;;;;;7.63;5.30;;;16.70;99.90;;;;;;4883704;29;20049;-76
2021/09/26 06:02:22;;;;;;;8.07;5.22;;;16.60;99.90;;;;;;4895709;29;20136;-78
2021/09/26 06:04:50;;;;;;;7.18;5.30;;;16.60;99.90;;;;;;4881672;29;20057;-75
2021/09/26 06:07:17;;;;;;;7.55;5.10;;;16.60;99.90;;;;;;4881424;29;20128;-75
2021/09/26 06:09:44;;;;;;;7.80;4.78;;;16.60;99.90;;;;;;4883235;29;20059;-79
2021/09/26 06:12:11;;;;;;;8.70;5.45;;;16.60;99.90;;;;;;4883603;29;20051;-79
2021/09/26 06:14:39;;;;;;;6.63;4.82;;;16.60;99.90;;;;;;4899943;29;20139;-80
2021/09/26 06:17:06;;;;;;;7.38;5.13;;;16.60;99.90;;;;;;4899675;29;20108;-80
2021/09/26 06:19:35;;;;;;;6.70;4.85;;;16.60;99.90;;;;;;4892369;29;20132;-79
2021/09/26 06:22:02;;;;;;;7.43;5.13;;;16.60;99.90;;;;;;4891998;29;20080;-80
2021/09/26 06:24:29;;;;;;;7.10;4.72;;;16.60;99.90;;;;;;4897696;29;20084;-79
2021/09/26 06:26:57;;;;;;;6.70;4.90;;;16.70;99.90;;;;;;4890971;29;20131;-78
2021/09/26 06:29:24;;;;;;;7.63;4.95;;;16.70;99.90;;;;;;4886399;29;20132;-79
2021/09/26 06:31:52;;;;;;;7.78;5.18;;;16.60;99.90;;;;;;4891655;29;20080;-78
2021/09/26 06:34:20;;;;;;;9.10;5.30;;;16.60;99.90;;;;;;4895483;29;20047;-79
2021/09/26 06:36:48;;;;;;;8.40;4.97;;;16.60;99.90;;;;;;4893421;29;20471;-77
2021/09/26 06:39:16;;;;;;;6.90;5.03;;;16.70;99.90;;;;;;4887780;29;20406;-77
2021/09/26 06:41:43;;;;;;;7.68;5.70;;;16.70;99.90;;;;;;4897088;29;20483;-78
2021/09/26 06:44:10;;;;;;;6.70;5.00;;;16.70;99.90;;;;;;4892914;29;20691;-76
2021/09/26 06:46:38;;;;;;;8.00;5.38;;;16.70;99.90;;;;;;4891166;29;20127;-77
2021/09/26 06:49:05;;;;;;;7.85;5.30;;;16.80;99.90;;;;;;4885714;29;20056;-79
2021/09/26 06:51:33;;;;;;;8.13;5.28;;;16.80;99.90;;;;;;4896262;29;20060;-78
2021/09/26 06:54:02;;;;;;;7.95;5.15;;;16.70;99.90;;;;;;4897664;29;20111;-78
2021/09/26 06:56:31;;;;;;;9.95;5.20;;;16.80;99.90;;;;;;4892969;29;20069;-77
2021/09/26 06:58:58;;;;;;;8.00;5.75;;;16.80;99.90;;;;;;4890425;29;20055;-77
2021/09/26 07:01:26;;;;;;;10.40;5.38;;;16.80;99.90;;;;;;4890554;29;20087;-79
2021/09/26 07:03:53;;;;;;;7.85;5.40;;;16.80;99.90;;;;;;4895781;29;20168;-78
2021/09/26 07:06:20;;;;;;;7.80;5.60;;;16.80;99.90;;;;;;4892376;29;20048;-76
2021/09/26 07:08:47;;;;;;;7.20;5.35;;;16.80;99.90;;;;;;4895425;29;20139;-79
2021/09/26 07:11:15;;;;;;;8.57;6.00;;;16.90;99.90;;;;;;4902233;29;20481;-78
2021/09/26 07:13:43;;;;;;;8.40;5.50;;;17.00;99.90;;;;;;4900413;29;20052;-77
2021/09/26 07:16:10;;;;;;;8.43;5.47;;;17.00;99.90;;;;;;4900739;29;20567;-77
2021/09/26 07:18:37;;;;;;;7.57;5.20;;;17.10;99.90;;;;;;4899785;29;20061;-75
2021/09/26 07:21:04;;;;;;;7.15;5.47;;;17.20;99.90;;;;;;4901368;29;20495;-78
2021/09/26 07:23:31;;;;;;;8.13;5.75;;;17.30;99.90;;;;;;4901598;29;20466;-78
2021/09/26 07:25:58;;;;;;;8.05;5.50;;;17.40;99.90;;;;;;4902492;29;20096;-77
2021/09/26 07:28:26;;;;;;;8.45;5.72;;;17.50;99.90;;;;;;4900565;29;20139;-76
2021/09/26 07:30:53;;;;;;;8.13;5.43;;;17.60;99.90;;;;;;4900732;29;20048;-76
2021/09/26 07:33:21;;;;;;;8.95;5.35;;;17.60;99.90;;;;;;4892400;29;20049;-79
2021/09/26 07:35:49;;;;;;;9.10;6.72;;;17.70;99.90;;;;;;4883089;29;20132;-80
2021/09/26 07:38:16;;;;;;;10.68;6.43;;;17.70;99.90;;;;;;4887520;29;20053;-78
2021/09/26 07:40:43;;;;;;;9.32;6.15;;;17.80;99.90;;;;;;4887795;29;20092;-77
2021/09/26 07:43:11;;;;;;;8.00;5.80;;;17.80;99.90;;;;;;4897599;29;20131;-77
2021/09/26 07:45:39;;;;;;;8.85;5.90;;;17.90;99.90;;;;;;4897870;29;20045;-75
2021/09/26 07:48:07;;;;;;;8.30;5.60;;;18.00;99.90;;;;;;4897280;29;20483;-78
2021/09/26 07:50:34;;;;;;;7.72;5.65;;;18.10;99.90;;;;;;4891139;29;20071;-78
2021/09/26 07:53:01;;;;;;;7.53;5.13;;;18.20;99.90;;;;;;4897786;29;20132;-79
2021/09/26 07:55:28;;;;;;;7.78;5.32;;;18.30;99.90;;;;;;4899215;29;20072;-80
2021/09/26 07:57:55;;;;;;;8.20;5.45;;;18.40;99.90;;;;;;4898218;29;20135;-77
2021/09/26 08:00:22;;;;;;;7.25;5.35;;;18.50;99.90;;;;;;4897642;29;20140;-78
2021/09/26 08:02:51;;;;;;;8.02;5.75;;;18.50;99.90;;;;;;4897782;29;20565;-87
2021/09/26 08:05:18;;;;;;;10.23;7.20;;;18.60;99.90;;;;;;4898468;29;20143;-79
2021/09/26 08:07:45;;;;;;;8.43;5.65;;;18.70;99.90;;;;;;4897820;29;20144;-79
2021/09/26 08:10:12;;;;;;;8.05;5.97;;;18.70;99.90;;;;;;4897275;29;20048;-80
2021/09/26 08:12:39;;;;;;;10.48;6.60;;;18.80;99.90;;;;;;4897363;29;20045;-77
2021/09/26 08:15:07;;;;;;;10.15;6.70;;;18.70;99.90;;;;;;4897270;29;20056;-80
2021/09/26 08:17:35;;;;;;;9.75;6.28;;;18.70;99.90;;;;;;4895499;29;20091;-79
2021/09/26 08:20:07;;;;;;;8.63;5.82;;;18.70;99.90;;;;;;4892973;29;20049;-80
2021/09/26 08:22:34;;;;;;;8.70;5.97;;;18.70;99.90;;;;;;4879539;29;20138;-79
2021/09/26 08:25:02;;;;;;;8.13;5.43;;;18.80;99.90;;;;;;4885680;29;20514;-79
2021/09/26 08:27:30;;;;;;;9.45;6.28;;;18.80;99.90;;;;;;4885145;29;20052;-80
2021/09/26 08:29:57;;;;;;;9.35;5.85;;;18.90;99.90;;;;;;4879556;29;20049;-80
2021/09/26 08:32:24;;;;;;;9.65;6.15;;;18.90;99.90;;;;;;4884162;29;20134;-80
2021/09/26 08:34:51;;;;;;;8.32;5.30;;;19.00;99.90;;;;;;4897522;29;20048;-79
2021/09/26 08:37:19;;;;;;;8.88;5.43;;;19.00;99.90;;;;;;4891657;29;20055;-80
2021/09/26 08:39:46;;;;;;;8.30;5.00;;;19.00;99.90;;;;;;4888519;29;20487;-79
2021/09/26 08:42:16;;;;;;;9.68;5.38;;;19.10;99.90;;;;;;4883435;29;20049;-80
2021/09/26 08:44:43;;;;;;;7.28;4.78;;;19.10;99.90;;;;;;4882878;29;20493;-79
2021/09/26 08:47:11;;;;;;;9.45;5.93;;;19.10;99.90;;;;;;4887361;29;20049;-80
2021/09/26 08:49:38;;;;;;;12.73;8.68;;;19.10;99.90;;;;;;4889521;29;20067;-80
2021/09/26 08:52:07;;;;;;;13.13;6.97;;;19.10;99.90;;;;;;4893812;29;20163;-78
2021/09/26 08:54:36;;;;;;;9.25;5.72;;;19.10;99.90;;;;;;4900134;29;20127;-79
2021/09/26 08:57:03;;;;;;;9.05;5.40;;;19.20;99.90;;;;;;4900418;29;20059;-82
2021/09/26 08:59:30;;;;;;;8.88;5.05;;;19.20;99.90;;;;;;4899840;29;20080;-78
2021/09/26 09:01:57;;;;;;;7.75;5.30;;;19.20;99.90;;;;;;4900357;29;20495;-78
2021/09/26 09:04:39;;;;;;;7.30;4.93;;;19.20;99.90;;;;;;4900120;29;20144;-80
2021/09/26 09:07:08;;;;;;;6.97;4.95;;;19.30;99.90;;;;;;4899973;29;20542;-80
2021/09/26 09:09:50;;;;;;;8.48;4.60;;;19.20;99.90;;;;;;4899900;29;20056;-80
2021/09/26 09:12:18;;;;;;;7.30;5.18;;;19.30;99.90;;;;;;4900053;29;20051;-80
2021/09/26 09:14:55;;;;;;;8.90;4.90;;;19.30;99.90;;;;;;4900358;29;20139;-82
2021/09/26 09:17:28;;;;;;;9.52;5.10;;;19.30;99.90;;;;;;4900190;29;20219;-79
2021/09/26 09:20:20;;;;;;;11.23;5.80;;;19.30;99.90;;;;;;4894115;29;20092;-82
2021/09/26 09:22:51;;;;;;;9.88;6.03;;;19.40;99.90;;;;;;4888769;29;20053;-79
2021/09/26 09:25:49;;;;;;;11.10;6.57;;;19.40;99.90;;;;;;4894138;29;20487;-79
2021/09/26 09:28:18;;;;;;;9.20;6.20;;;19.30;99.90;;;;;;4899573;29;20143;-80
2021/09/26 09:30:48;;;;;;;12.05;6.80;;;19.30;99.90;;;;;;4899891;29;20487;-79
2021/09/26 09:33:17;;;;;;;8.57;6.47;;;19.40;99.90;;;;;;4899924;29;20075;-78
2021/09/26 09:35:48;;;;;;;10.05;6.75;;;19.30;99.90;;;;;;4898729;29;20135;-79
2021/09/26 09:38:18;;;;;;;10.00;6.78;;;19.30;99.90;;;;;;4899563;29;20195;-79
2021/09/26 09:40:50;;;;;;;11.27;7.70;;;19.30;99.90;;;;;;4899181;29;20041;-79
2021/09/26 09:43:17;;;;;;;12.20;7.35;;;19.30;99.90;;;;;;4898420;29;20242;-79
2021/09/26 09:45:49;;;;;;;11.05;7.78;;;19.20;99.90;;;;;;4899340;29;20135;-78
2021/09/26 09:48:19;;;;;;;11.50;8.30;;;19.30;99.90;;;;;;4899446;29;20059;-79
2021/09/26 09:50:54;;;;;;;11.40;7.10;;;19.20;99.90;;;;;;4899625;29;20131;-79
2021/09/26 09:53:32;;;;;;;12.85;7.72;;;19.20;99.90;;;;;;4899169;29;20099;-79
2021/09/26 09:56:18;;;;;;;11.23;7.82;;;19.20;99.90;;;;;;4899637;29;20059;-79
2021/09/26 09:58:48;;;;;;;13.45;8.25;;;19.30;99.90;;;;;;4893533;29;20506;-80
2021/09/26 10:01:18;;;;;;;13.95;8.63;;;19.30;99.90;;;;;;4898718;29;20140;-80
2021/09/26 10:03:50;;;;;;;14.18;8.90;;;19.30;99.90;;;;;;4899618;29;20550;-78
2021/09/26 10:06:37;;;;;;;12.15;8.65;;;19.30;99.90;;;;;;4899254;29;20063;-78
2021/09/26 10:09:22;;;;;;;12.02;8.20;;;19.30;99.90;;;;;;4899319;29;20048;-77
2021/09/26 10:11:54;;;;;;;14.00;10.18;;;19.40;99.90;;;;;;4894120;29;20116;-77
2021/09/26 10:14:26;;;;;;;20.98;14.23;;;19.50;99.90;;;;;;4898982;29;20052;-76
2021/09/26 10:16:54;;;;;;;15.25;10.82;;;19.50;99.90;;;;;;4899105;29;20136;-77
2021/09/26 10:19:24;;;;;;;13.75;9.27;;;19.50;99.90;;;;;;4899434;29;20143;-85
2021/09/26 10:21:56;;;;;;;11.80;8.82;;;19.50;99.90;;;;;;4900386;29;20048;-82
2021/09/26 10:24:26;;;;;;;11.50;8.43;;;19.50;99.90;;;;;;4900806;29;20052;-82
2021/09/26 10:26:59;;;;;;;11.27;8.80;;;19.60;99.90;;;;;;4900280;29;20522;-83
2021/09/26 10:29:31;;;;;;;14.70;8.25;;;19.60;99.90;;;;;;4898964;29;20064;-84
2021/09/26 10:32:02;;;;;;;11.15;8.35;;;19.60;99.90;;;;;;4900042;29;20057;-82
2021/09/26 10:34:31;;;;;;;11.45;8.35;;;19.70;99.90;;;;;;4894710;29;20139;-81
2021/09/26 10:36:59;;;;;;;10.45;7.93;;;19.70;99.90;;;;;;4896345;29;20578;-83
2021/09/26 10:39:27;;;;;;;25.80;17.05;;;19.70;99.90;;;;;;4897322;29;20056;-83
2021/09/26 10:42:09;;;;;;;84.63;54.28;;;19.70;99.90;;;;;;4897289;29;20426;-83
2021/09/26 10:44:43;;;;;;;49.85;34.65;;;19.80;99.90;;;;;;4890507;29;20053;-85
2021/09/26 10:47:17;;;;;;;26.80;18.92;;;19.80;99.90;;;;;;4898256;29;20052;-83
2021/09/26 10:49:48;;;;;;;16.98;13.18;;;19.80;99.90;;;;;;4899419;29;20056;-85
2021/09/26 10:52:29;;;;;;;13.57;10.05;;;19.90;99.90;;;;;;4914902;29;20056;-82
2021/09/26 10:55:16;;;;;;;11.98;9.50;;;19.90;99.90;;;;;;4896589;29;20100;-82
2021/09/26 10:57:47;;;;;;;12.77;9.27;;;19.90;99.90;;;;;;4882403;29;20136;-83
2021/09/26 11:00:16;;;;;;;11.88;8.25;;;19.90;99.90;;;;;;4896027;29;20057;-83
2021/09/26 11:02:47;;;;;;;11.27;8.88;;;20.00;99.90;;;;;;4896717;29;20076;-84
2021/09/26 11:05:40;;;;;;;12.55;8.60;;;20.00;99.90;;;;;;4895266;29;20543;-81
2021/09/26 11:08:11;;;;;;;10.00;8.07;;;20.00;99.90;;;;;;4886086;29;20095;-82
2021/09/26 11:10:57;;;;;;;12.20;7.97;;;20.00;99.90;;;;;;4894430;29;20989;-83
2021/09/26 11:13:29;;;;;;;10.07;7.80;;;20.00;99.90;;;;;;4892820;29;20048;-80
2021/09/26 11:16:14;;;;;;;9.88;7.53;;;20.00;99.90;;;;;;4894570;29;20511;-79
2021/09/26 11:18:58;;;;;;;11.80;7.53;;;20.10;99.90;;;;;;4887613;29;20407;-80
2021/09/26 11:21:47;;;;;;;;;;;20.10;99.90;;;;;;4894257;29;20190;-79
2021/09/26 11:24:31;;;;;;;10.13;7.38;;;20.10;99.90;;;;;;4894189;29;20616;-78
2021/09/26 11:27:17;;;;;;;8.23;6.50;;;20.30;99.90;;;;;;4894299;29;20127;-79
2021/09/26 11:30:15;;;;;;;8.48;6.50;;;20.30;99.90;;;;;;4888457;29;20558;-79
2021/09/26 11:32:43;;;;;;;10.43;6.32;;;20.40;99.90;;;;;;4884794;29;20100;-78
2021/09/26 11:35:25;;;;;;;8.85;6.13;;;20.50;99.90;;;;;;4893477;29;20135;-78
2021/09/26 11:38:02;;;;;;;8.25;5.90;;;20.50;99.90;;;;;;4893952;29;20051;-79
2021/09/26 11:41:05;;;;;;;9.48;6.25;;;20.50;99.90;;;;;;4893247;29;20048;-76
2021/09/26 11:43:52;;;;;;;8.27;6.55;;;20.50;99.90;;;;;;4893450;29;20127;-76
2021/09/26 11:46:25;;;;;;;8.45;6.00;;;20.60;99.90;;;;;;4893262;29;20079;-76
2021/09/26 11:48:54;;;;;;;7.43;5.90;;;20.70;99.90;;;;;;4893745;29;20127;-78
2021/09/26 11:51:22;;;;;;;7.38;5.65;;;20.70;99.90;;;;;;4894779;29;20136;-78
2021/09/26 11:53:49;;;;;;;9.02;5.80;;;20.80;99.90;;;;;;4894778;29;20163;-76
2021/09/26 11:56:22;;;;;;;8.15;5.75;;;20.80;99.90;;;;;;4893478;29;20140;-78
2021/09/26 11:58:57;;;;;;;7.47;5.80;;;20.80;99.90;;;;;;4893880;29;20649;-78
2021/09/26 12:01:46;;;;;;;7.75;5.90;;;20.90;99.90;;;;;;4893126;29;20053;-79
2021/09/26 12:04:19;;;;;;;7.78;6.20;;;20.90;99.90;;;;;;4893213;29;20140;-78
2021/09/26 12:06:49;;;;;;;8.93;5.85;;;21.00;99.90;;;;;;4892914;29;20052;-76
2021/09/26 12:09:35;;;;;;;8.27;6.05;;;21.00;99.90;;;;;;4893650;29;20135;-77
2021/09/26 12:12:04;;;;;;;6.97;5.40;;;21.00;99.90;;;;;;4893622;29;20230;-79
2021/09/26 12:14:31;;;;;;;7.60;5.85;;;21.10;99.90;;;;;;4890953;29;20509;-78
2021/09/26 12:17:04;;;;;;;7.32;5.60;;;21.10;99.90;;;;;;4893482;29;20059;-78
2021/09/26 12:19:33;;;;;;;7.18;5.50;;;21.20;99.90;;;;;;4893109;29;20059;-78
2021/09/26 12:22:08;;;;;;;7.32;5.82;;;21.20;99.90;;;;;;4893124;29;20455;-75
2021/09/26 12:24:43;;;;;;;7.95;6.20;;;21.30;99.90;;;;;;4894065;29;20551;-74
2021/09/26 12:27:26;;;;;;;8.18;6.22;;;21.30;99.90;;;;;;4894800;29;20057;-75
2021/09/26 12:29:58;;;;;;;7.80;6.18;;;21.40;99.90;;;;;;4894280;29;20048;-76
2021/09/26 12:32:31;;;;;;;9.55;7.00;;;21.40;99.90;;;;;;4892637;29;20139;-75
2021/09/26 12:35:00;;;;;;;9.82;6.88;;;21.50;99.80;;;;;;4895846;29;20670;-74
2021/09/26 12:37:31;;;;;;;8.50;6.63;;;21.50;99.80;;;;;;4894085;29;20584;-76
2021/09/26 12:40:06;;;;;;;8.38;6.80;;;21.50;99.90;;;;;;4893376;29;20545;-75
2021/09/26 12:42:46;;;;;;;9.98;6.78;;;21.60;99.90;;;;;;4892248;29;20503;-73
2021/09/26 12:45:17;;;;;;;9.07;6.40;;;21.70;99.90;;;;;;4898116;29;20136;-79
2021/09/26 12:47:44;;;;;;;9.93;6.32;;;21.80;99.90;;;;;;4895643;29;20044;-79
2021/09/26 12:50:14;;;;;;;8.52;6.57;;;21.90;99.90;;;;;;4900955;29;20046;-78
2021/09/26 12:52:43;;;;;;;8.85;6.20;;;22.00;99.80;;;;;;4900327;29;20964;-80
2021/09/26 12:55:18;;;;;;;7.70;6.10;;;22.10;98.30;;;;;;4897012;29;20051;-79
2021/09/26 12:57:46;;;;;;;7.75;6.15;;;22.30;98.60;;;;;;4902155;29;20127;-77
2021/09/26 13:00:20;;;;;;;7.72;5.57;;;22.50;98.50;;;;;;4902566;29;20139;-76
2021/09/26 13:02:54;;;;;;;7.15;5.82;;;22.80;98.70;;;;;;4903969;29;20089;-79